This is the latest recevied weather packets stored in our database for station/object EMGATE. If no packets are shown the sender has not sent any weather packets the latest 10 day(s).
| Time | Temp. | Humidity | Pressure | Rain* | Wind** | Luminosity | Snow |
|---|---|---|---|---|---|---|---|
| 1777206245 | 10° C | 54% | 1022.1 hPa | 0 mm | - | - | - |
| 1777205345 | 8.33° C | 57% | 1021.9 hPa | 0 mm | - | - | - |
| 1777204445 | 7.78° C | 59% | 1021.9 hPa | 0 mm | - | - | - |
| 1777203545 | 6.67° C | 60% | 1021.8 hPa | 0 mm | - | - | - |
| 1777202645 | 6.67° C | 62% | 1021.7 hPa | 0 mm | - | - | - |
| 1777201745 | 5.56° C | 65% | 1021.6 hPa | 0 mm | - | - | - |
| 1777200845 | 4.44° C | 69% | 1021.3 hPa | 0 mm | - | - | - |
| 1777199945 | 3.33° C | 71% | 1021.2 hPa | 0 mm | - | - | - |
| 1777199045 | 2.78° C | 72% | 1021.1 hPa | 0 mm | - | - | - |
| 1777198145 | 2.78° C | 71% | 1020.9 hPa | 0 mm | - | - | - |
| 1777197245 | 2.78° C | 71% | 1020.8 hPa | 0 mm | - | - | - |
| 1777196345 | 2.78° C | 71% | 1020.7 hPa | 0 mm | - | - | - |
| 1777195445 | 2.78° C | 71% | 1020.5 hPa | 0 mm | - | - | - |
| 1777194545 | 2.78° C | 71% | 1020.5 hPa | 0 mm | - | - | - |
| 1777193645 | 2.78° C | 71% | 1020.4 hPa | 0 mm | - | - | - |
| 1777192745 | 2.78° C | 71% | 1020.2 hPa | 0 mm | - | - | - |
| 1777191845 | 3.33° C | 70% | 1020.2 hPa | 0 mm | - | - | - |
| 1777190945 | 3.33° C | 70% | 1020 hPa | 0 mm | - | - | - |
| 1777190045 | 3.33° C | 69% | 1019.8 hPa | 0 mm | - | - | - |
| 1777189145 | 3.89° C | 68% | 1019.7 hPa | 0 mm | - | - | - |
| 1777188245 | 3.89° C | 68% | 1019.6 hPa | 0 mm | - | - | - |
| 1777187345 | 3.89° C | 67% | 1019.5 hPa | 0 mm | - | - | - |
| 1777186445 | 4.44° C | 67% | 1019.4 hPa | 0 mm | - | - | - |
| 1777185545 | 4.44° C | 67% | 1019.4 hPa | 0 mm | - | - | - |
| 1777184645 | 4.44° C | 66% | 1019.2 hPa | 0 mm | - | - | - |
* Rain latest hour (hover to see other rain measurements)
** Current wind speed in m/s (hover to see current wind gust speed)